createdAt,value
2022-09-09T00:02:29.130Z,4.45
2022-09-09T00:05:00.239Z,3.60
2022-09-09T00:07:42.056Z,3.78
2022-09-09T00:10:23.897Z,3.72
2022-09-09T00:13:07.766Z,3.60
2022-09-09T00:15:35.133Z,4.00
2022-09-09T00:18:20.780Z,4.07
2022-09-09T00:20:47.928Z,4.30
2022-09-09T00:23:19.730Z,3.90
2022-09-09T00:25:55.967Z,3.63
2022-09-09T00:28:27.881Z,4.30
2022-09-09T00:30:56.203Z,3.90
2022-09-09T00:33:25.088Z,4.07
2022-09-09T00:35:53.636Z,4.28
2022-09-09T00:38:38.752Z,3.85
2022-09-09T00:41:15.142Z,3.90
2022-09-09T00:43:42.841Z,4.05
2022-09-09T00:46:26.030Z,4.07
2022-09-09T00:49:01.749Z,3.95
2022-09-09T00:51:28.829Z,4.13
2022-09-09T00:54:25.493Z,3.90
2022-09-09T00:57:01.944Z,3.95
2022-09-09T00:59:44.289Z,4.18
2022-09-09T01:02:29.213Z,3.85
2022-09-09T01:04:56.498Z,3.90
2022-09-09T01:07:23.773Z,4.10
2022-09-09T01:10:01.415Z,4.25
2022-09-09T01:12:36.100Z,3.65
2022-09-09T01:15:14.672Z,3.95
2022-09-09T01:17:50.349Z,3.45
2022-09-09T01:20:31.241Z,3.40
2022-09-09T01:23:06.401Z,3.70
2022-09-09T01:25:46.108Z,3.42
2022-09-09T01:28:15.754Z,3.78
2022-09-09T01:30:43.451Z,3.58
2022-09-09T01:33:14.516Z,3.42
2022-09-09T01:35:46.496Z,3.53
2022-09-09T01:38:13.833Z,3.65
2022-09-09T01:40:41.135Z,3.42
2022-09-09T01:43:08.420Z,3.33
2022-09-09T01:45:35.702Z,3.58
2022-09-09T01:48:03.957Z,3.58
2022-09-09T01:50:31.127Z,3.42
2022-09-09T01:52:59.762Z,3.22
2022-09-09T01:55:31.790Z,3.35
2022-09-09T01:58:04.986Z,3.67
2022-09-09T02:00:33.110Z,3.17
2022-09-09T02:03:08.302Z,3.08
2022-09-09T02:05:40.775Z,2.95
2022-09-09T02:08:09.697Z,3.03
2022-09-09T02:10:44.951Z,3.63
2022-09-09T02:13:14.418Z,3.22
2022-09-09T02:15:51.884Z,3.40
2022-09-09T02:18:21.585Z,3.10
2022-09-09T02:20:49.300Z,3.20
2022-09-09T02:23:17.010Z,3.47
2022-09-09T02:25:47.297Z,3.40
2022-09-09T02:28:15.820Z,3.05
2022-09-09T02:30:44.558Z,3.45
2022-09-09T02:33:13.507Z,3.60
2022-09-09T02:35:41.269Z,3.75
2022-09-09T02:38:11.367Z,3.80
2022-09-09T02:40:38.546Z,3.70
2022-09-09T02:43:07.416Z,3.40
2022-09-09T02:45:43.282Z,3.53
2022-09-09T02:48:15.964Z,3.53
2022-09-09T02:50:50.633Z,3.70
2022-09-09T02:53:24.578Z,3.38
2022-09-09T02:55:57.754Z,3.15
2022-09-09T02:58:25.133Z,3.97
2022-09-09T03:00:53.539Z,4.00
2022-09-09T03:03:22.317Z,3.35
2022-09-09T03:05:49.432Z,3.63
2022-09-09T03:08:16.797Z,3.53
2022-09-09T03:10:44.025Z,3.92
2022-09-09T03:13:14.022Z,4.00
2022-09-09T03:15:41.194Z,3.83
2022-09-09T03:18:08.753Z,3.20
2022-09-09T03:20:35.854Z,4.15
2022-09-09T03:23:03.476Z,3.70
2022-09-09T03:25:30.974Z,3.30
2022-09-09T03:27:59.109Z,3.67
2022-09-09T03:30:27.434Z,3.70
2022-09-09T03:32:57.733Z,3.80
2022-09-09T03:35:24.944Z,3.60
2022-09-09T03:37:52.090Z,3.88
2022-09-09T03:40:20.621Z,3.65
2022-09-09T03:42:49.062Z,3.88
2022-09-09T03:45:16.238Z,3.72
2022-09-09T03:47:43.518Z,3.60
2022-09-09T03:50:11.581Z,3.42
2022-09-09T03:52:39.869Z,3.83
2022-09-09T03:55:07.445Z,3.30
2022-09-09T03:57:36.002Z,4.03
2022-09-09T04:00:07.950Z,3.80
2022-09-09T04:02:35.160Z,3.85
2022-09-09T04:05:02.467Z,3.67
2022-09-09T04:07:29.692Z,3.53
2022-09-09T04:09:56.827Z,3.50
2022-09-09T04:12:23.953Z,4.05
2022-09-09T04:14:51.228Z,4.25
2022-09-09T04:17:18.423Z,4.10
2022-09-09T04:19:45.602Z,3.83
2022-09-09T04:22:12.837Z,3.83
2022-09-09T04:24:40.019Z,3.67
2022-09-09T04:27:07.152Z,3.60
2022-09-09T04:29:34.778Z,4.18
2022-09-09T04:32:02.076Z,3.83
2022-09-09T04:34:30.045Z,3.80
2022-09-09T04:36:57.999Z,4.03
2022-09-09T04:39:25.631Z,3.85
2022-09-09T04:41:52.980Z,4.07
2022-09-09T04:44:20.175Z,4.80
2022-09-09T04:46:47.494Z,4.10
2022-09-09T04:49:15.361Z,3.40
2022-09-09T04:51:42.988Z,3.88
2022-09-09T04:54:10.275Z,4.45
2022-09-09T04:56:37.399Z,4.25
2022-09-09T04:59:04.614Z,3.67
2022-09-09T05:01:33.027Z,3.85
2022-09-09T05:04:00.124Z,4.07
2022-09-09T05:06:27.434Z,4.35
2022-09-09T05:08:54.683Z,3.83
2022-09-09T05:11:25.156Z,4.20
2022-09-09T05:13:52.774Z,3.85
2022-09-09T05:16:20.124Z,4.18
2022-09-09T05:18:47.402Z,3.53
2022-09-09T05:21:15.601Z,3.90
2022-09-09T05:23:42.754Z,4.25
2022-09-09T05:26:16.679Z,4.05
2022-09-09T05:28:44.963Z,4.10
2022-09-09T05:31:13.653Z,3.78
2022-09-09T05:33:41.727Z,4.38
2022-09-09T05:36:11.821Z,4.07
2022-09-09T05:38:40.277Z,4.43
2022-09-09T05:41:08.327Z,4.22
2022-09-09T05:43:36.859Z,4.35
2022-09-09T05:46:07.056Z,4.10
2022-09-09T05:48:35.259Z,4.13
2022-09-09T05:51:03.600Z,3.75
2022-09-09T05:53:37.845Z,4.53
2022-09-09T05:56:06.381Z,4.22
2022-09-09T05:58:34.103Z,4.32
2022-09-09T06:01:08.968Z,3.90
2022-09-09T06:03:36.821Z,3.72
2022-09-09T06:06:08.078Z,3.65
2022-09-09T06:08:38.225Z,4.45
2022-09-09T06:11:06.889Z,4.20
2022-09-09T06:13:34.212Z,5.00
2022-09-09T06:16:01.650Z,4.03
2022-09-09T06:18:29.013Z,4.00
2022-09-09T06:21:01.688Z,3.90
2022-09-09T06:23:29.672Z,3.90
2022-09-09T06:26:07.378Z,3.53
2022-09-09T06:28:35.286Z,3.70
2022-09-09T06:31:04.100Z,3.63
2022-09-09T06:33:36.073Z,4.20
2022-09-09T06:36:04.822Z,4.78
2022-09-09T06:38:32.017Z,4.30
2022-09-09T06:41:00.274Z,3.90
2022-09-09T06:43:28.012Z,3.80
2022-09-09T06:45:59.249Z,3.90
2022-09-09T06:48:29.937Z,3.20
2022-09-09T06:51:03.154Z,3.38
2022-09-09T06:53:30.796Z,3.20
2022-09-09T06:55:58.251Z,2.80
2022-09-09T06:58:25.352Z,3.08
2022-09-09T07:00:52.580Z,3.25
2022-09-09T07:03:19.781Z,3.53
2022-09-09T07:05:55.430Z,4.07
2022-09-09T07:08:22.642Z,2.97
2022-09-09T07:10:50.223Z,3.00
2022-09-09T07:13:17.394Z,3.58
2022-09-09T07:15:44.544Z,3.38
2022-09-09T07:18:11.670Z,3.63
2022-09-09T07:20:39.362Z,3.20
2022-09-09T07:23:06.565Z,3.88
2022-09-09T07:25:33.758Z,3.30
2022-09-09T07:28:01.024Z,2.90
2022-09-09T07:30:28.204Z,3.20
2022-09-09T07:32:57.852Z,3.33
2022-09-09T07:35:25.127Z,2.95
2022-09-09T07:37:52.237Z,2.80
2022-09-09T07:40:22.741Z,2.28
2022-09-09T07:42:50.013Z,2.75
2022-09-09T07:45:17.221Z,2.40
2022-09-09T07:47:44.398Z,2.00
2022-09-09T07:50:12.705Z,2.50
2022-09-09T07:52:39.822Z,1.73
2022-09-09T07:55:07.213Z,2.35
2022-09-09T07:57:34.582Z,1.63
2022-09-09T08:00:01.736Z,2.00
2022-09-09T08:02:30.363Z,1.85
2022-09-09T08:04:57.774Z,1.75
2022-09-09T08:07:25.413Z,2.03
2022-09-09T08:09:52.561Z,1.88
2022-09-09T08:12:19.786Z,1.80
2022-09-09T08:14:46.898Z,1.85
2022-09-09T08:17:14.038Z,1.80
2022-09-09T08:19:41.278Z,1.73
2022-09-09T08:22:08.841Z,1.58
2022-09-09T08:24:36.947Z,1.63
2022-09-09T08:27:04.172Z,1.30
2022-09-09T08:29:31.353Z,2.13
2022-09-09T08:31:59.230Z,1.40
2022-09-09T08:34:28.050Z,1.73
2022-09-09T08:36:55.596Z,1.55
2022-09-09T08:39:23.838Z,1.55
2022-09-09T08:42:26.480Z,1.80
2022-09-09T08:45:02.593Z,1.52
2022-09-09T08:47:33.678Z,1.77
2022-09-09T08:50:20.827Z,1.80
2022-09-09T08:53:06.928Z,1.45
2022-09-09T08:55:40.150Z,1.45
2022-09-09T08:58:15.312Z,1.65
2022-09-09T09:01:01.182Z,1.60
2022-09-09T09:03:31.482Z,1.70
2022-09-09T09:06:03.581Z,1.23
2022-09-09T09:08:52.560Z,1.98
2022-09-09T09:11:19.705Z,1.35
2022-09-09T09:13:49.839Z,1.77
2022-09-09T09:16:33.462Z,1.75
2022-09-09T09:19:01.349Z,1.65
2022-09-09T09:21:34.718Z,1.55
2022-09-09T09:24:02.855Z,1.40
2022-09-09T09:26:34.750Z,1.50
2022-09-09T09:29:04.032Z,1.60
2022-09-09T09:31:31.287Z,1.45
2022-09-09T09:34:00.325Z,1.17
2022-09-09T09:36:40.469Z,1.55
2022-09-09T09:41:55.567Z,2.15
2022-09-09T09:44:27.519Z,1.90
2022-09-09T09:46:55.074Z,1.40
2022-09-09T09:49:22.236Z,1.30
2022-09-09T09:51:49.633Z,1.40
2022-09-09T09:54:35.160Z,1.30
2022-09-09T09:57:11.722Z,1.50
2022-09-09T09:59:41.008Z,1.50
2022-09-09T10:02:29.748Z,1.35
2022-09-09T10:05:04.809Z,1.52
2022-09-09T10:07:33.906Z,1.23
2022-09-09T10:10:01.634Z,1.10
2022-09-09T10:12:51.959Z,1.52
2022-09-09T10:15:32.546Z,1.43
2022-09-09T10:18:18.559Z,1.23
2022-09-09T10:20:50.226Z,1.45
2022-09-09T10:23:37.747Z,1.30
2022-09-09T10:26:04.866Z,1.70
2022-09-09T10:28:36.942Z,1.50
2022-09-09T10:31:07.293Z,1.60
2022-09-09T10:33:34.618Z,1.58
2022-09-09T10:36:08.242Z,1.50
2022-09-09T10:38:42.703Z,1.40
2022-09-09T10:41:12.919Z,1.27
2022-09-09T10:43:59.664Z,1.50
2022-09-09T10:46:37.206Z,1.73
2022-09-09T10:49:07.406Z,1.20
2022-09-09T10:51:53.289Z,1.77
2022-09-09T10:54:32.662Z,1.55
2022-09-09T10:57:06.126Z,1.98
2022-09-09T10:59:35.954Z,1.45
2022-09-09T11:02:07.935Z,1.60
2022-09-09T11:04:42.351Z,1.13
2022-09-09T11:07:12.191Z,2.22
2022-09-09T11:09:44.791Z,1.85
2022-09-09T11:12:14.762Z,1.58
2022-09-09T11:14:46.830Z,1.77
2022-09-09T11:17:19.287Z,1.30
2022-09-09T11:19:46.848Z,1.50
2022-09-09T11:22:15.841Z,1.38
2022-09-09T11:24:48.770Z,1.60
2022-09-09T11:27:36.208Z,1.90
2022-09-09T11:30:03.468Z,1.80
2022-09-09T11:32:33.352Z,1.50
2022-09-09T11:35:03.380Z,1.42
2022-09-09T11:37:30.461Z,1.38
2022-09-09T11:40:11.030Z,1.38
2022-09-09T11:42:38.285Z,1.40
2022-09-09T11:45:12.895Z,1.40
2022-09-09T11:47:40.226Z,1.55
2022-09-09T11:50:16.375Z,1.50
2022-09-09T11:52:46.846Z,1.20
2022-09-09T11:55:30.746Z,1.38
2022-09-09T11:58:05.446Z,1.30
2022-09-09T12:00:38.502Z,1.33
2022-09-09T12:03:06.480Z,1.10
2022-09-09T12:05:44.239Z,1.30
2022-09-09T12:08:13.040Z,1.35
2022-09-09T12:10:43.353Z,1.50
2022-09-09T12:13:20.934Z,1.30
2022-09-09T12:15:49.163Z,1.40
2022-09-09T12:18:23.725Z,1.40
2022-09-09T12:20:58.932Z,1.40
2022-09-09T12:23:38.918Z,1.70
2022-09-09T12:26:06.203Z,1.70
2022-09-09T12:28:42.742Z,1.48
2022-09-09T12:31:33.721Z,1.33
2022-09-09T12:34:16.963Z,1.67
2022-09-09T12:36:48.663Z,1.70
2022-09-09T12:39:20.600Z,1.50
2022-09-09T12:42:00.678Z,1.60
2022-09-09T12:44:31.387Z,1.42
2022-09-09T12:47:00.375Z,1.83
2022-09-09T12:49:32.373Z,2.30
2022-09-09T12:51:59.660Z,1.88
2022-09-09T12:54:26.859Z,1.65
2022-09-09T12:56:54.074Z,1.98
2022-09-09T12:59:28.885Z,2.00
2022-09-09T13:01:59.564Z,1.92
2022-09-09T13:04:26.898Z,1.67
2022-09-09T13:06:54.045Z,1.52
2022-09-09T13:09:21.511Z,1.70
2022-09-09T13:11:51.740Z,1.88
2022-09-09T13:14:27.034Z,1.42
2022-09-09T13:17:04.661Z,1.73
2022-09-09T13:19:34.102Z,1.65
2022-09-09T13:22:01.242Z,1.77
2022-09-09T13:24:31.142Z,1.75
2022-09-09T13:26:59.037Z,1.23
2022-09-09T13:29:26.217Z,1.52
2022-09-09T13:31:56.669Z,1.20
2022-09-09T13:34:28.255Z,1.98
2022-09-09T13:36:59.981Z,1.60
2022-09-09T13:39:27.170Z,2.35
2022-09-09T13:41:54.995Z,1.50
2022-09-09T13:44:25.027Z,1.80
2022-09-09T13:47:10.761Z,1.85
2022-09-09T13:49:38.418Z,1.55
2022-09-09T13:52:18.023Z,1.95
2022-09-09T13:54:48.925Z,1.60
2022-09-09T13:57:23.577Z,1.50
2022-09-09T14:00:06.756Z,1.80
2022-09-09T14:02:35.039Z,1.70
2022-09-09T14:05:02.282Z,1.70
2022-09-09T14:07:29.979Z,1.55
2022-09-09T14:09:57.434Z,1.70
2022-09-09T14:12:24.643Z,1.50
2022-09-09T14:14:51.925Z,1.60
2022-09-09T14:17:19.209Z,1.70
2022-09-09T14:19:46.957Z,1.48
2022-09-09T14:22:14.087Z,1.95
2022-09-09T14:24:41.955Z,2.05
2022-09-09T14:27:09.687Z,1.70
2022-09-09T14:29:36.817Z,1.92
2022-09-09T14:32:04.108Z,1.48
2022-09-09T14:34:33.315Z,2.00
2022-09-09T14:37:00.933Z,1.92
2022-09-09T14:39:28.214Z,1.65
2022-09-09T14:41:55.391Z,1.90
2022-09-09T14:44:23.259Z,1.80
2022-09-09T14:46:52.121Z,1.65
2022-09-09T14:49:19.223Z,1.98
2022-09-09T14:51:46.326Z,1.95
2022-09-09T14:54:13.692Z,2.05
2022-09-09T14:56:41.216Z,2.17
2022-09-09T14:59:08.581Z,2.80
2022-09-09T15:01:35.938Z,2.03
2022-09-09T15:04:04.709Z,2.08
2022-09-09T15:06:34.038Z,1.70
2022-09-09T15:09:01.691Z,1.90
2022-09-09T15:11:31.373Z,1.70
2022-09-09T15:13:59.154Z,1.75
2022-09-09T15:16:27.884Z,2.10
2022-09-09T15:18:56.338Z,2.00
2022-09-09T15:21:24.749Z,1.60
2022-09-09T15:23:52.372Z,2.20
2022-09-09T15:26:19.794Z,2.05
2022-09-09T15:28:48.322Z,1.83
2022-09-09T15:31:20.071Z,2.08
2022-09-09T15:33:51.112Z,1.92
2022-09-09T15:38:46.275Z,1.88
2022-09-09T15:41:14.375Z,1.73
2022-09-09T15:43:45.415Z,1.70
2022-09-09T15:48:40.417Z,1.90
2022-09-09T15:51:19.522Z,2.10
2022-09-09T15:53:58.568Z,2.80
2022-09-09T15:58:53.040Z,2.25
2022-09-09T16:01:20.751Z,2.13
2022-09-09T16:03:48.292Z,2.33
2022-09-09T16:06:16.087Z,3.00
2022-09-09T16:08:44.044Z,2.97
2022-09-09T16:11:13.063Z,2.50
2022-09-09T16:13:41.024Z,2.25
2022-09-09T16:16:08.640Z,2.40
2022-09-09T16:18:37.093Z,2.47
2022-09-09T16:21:06.006Z,2.05
2022-09-09T16:23:34.980Z,2.70
2022-09-09T16:26:05.778Z,2.42
2022-09-09T16:28:33.148Z,2.40
2022-09-09T16:31:00.402Z,2.67
2022-09-09T16:33:27.801Z,3.47
2022-09-09T16:35:55.634Z,3.00
2022-09-09T16:38:22.890Z,3.10
2022-09-09T16:40:51.186Z,3.30
2022-09-09T16:43:18.323Z,3.22
2022-09-09T16:45:46.235Z,3.10
2022-09-09T16:48:13.685Z,3.22
2022-09-09T16:50:40.838Z,3.05
2022-09-09T16:53:09.805Z,3.22
2022-09-09T16:55:41.473Z,2.53
2022-09-09T16:58:09.706Z,2.47
2022-09-09T17:00:37.182Z,2.88
2022-09-09T17:03:05.036Z,2.88
2022-09-09T17:05:33.601Z,3.05
2022-09-09T17:08:00.890Z,2.85
2022-09-09T17:10:28.009Z,2.88
2022-09-09T17:12:55.163Z,2.58
2022-09-09T17:15:22.330Z,2.75
2022-09-09T17:17:53.630Z,3.90
2022-09-09T17:20:20.956Z,3.78
2022-09-09T17:22:48.256Z,3.75
2022-09-09T17:25:15.410Z,3.40
2022-09-09T17:27:42.529Z,3.60
2022-09-09T17:30:10.440Z,3.33
2022-09-09T17:32:37.613Z,3.60
2022-09-09T17:35:06.800Z,3.47
2022-09-09T17:37:34.155Z,3.55
2022-09-09T17:40:01.986Z,3.53
2022-09-09T17:42:29.219Z,3.38
2022-09-09T17:44:56.471Z,3.63
2022-09-09T17:47:23.639Z,3.38
2022-09-09T17:49:50.782Z,3.72
2022-09-09T17:52:18.091Z,3.50
2022-09-09T17:54:45.224Z,3.67
2022-09-09T17:57:12.464Z,3.58
2022-09-09T17:59:39.945Z,3.50
2022-09-09T18:02:07.296Z,4.28
2022-09-09T18:04:37.039Z,3.35
2022-09-09T18:07:04.746Z,3.90
2022-09-09T18:09:32.624Z,3.75
2022-09-09T18:12:00.250Z,4.45
2022-09-09T18:14:30.283Z,4.63
2022-09-09T18:16:57.663Z,4.53
2022-09-09T18:19:26.020Z,3.38
2022-09-09T18:21:55.402Z,4.18
2022-09-09T18:24:23.648Z,3.95
2022-09-09T18:26:51.230Z,4.57
2022-09-09T18:29:21.064Z,4.93
2022-09-09T18:31:48.762Z,4.93
2022-09-09T18:34:17.154Z,4.85
2022-09-09T18:36:48.851Z,3.92
2022-09-09T18:39:17.647Z,5.03
2022-09-09T18:41:46.174Z,4.45
2022-09-09T18:44:16.282Z,4.53
2022-09-09T18:46:43.983Z,4.00
2022-09-09T18:49:15.176Z,4.43
2022-09-09T18:54:14.751Z,3.95
2022-09-09T18:56:41.995Z,3.67
2022-09-09T18:59:10.937Z,3.50
2022-09-09T19:01:38.187Z,3.47
2022-09-09T19:04:06.196Z,3.15
2022-09-09T19:06:34.151Z,3.50
2022-09-09T19:09:03.343Z,3.30
2022-09-09T19:11:33.818Z,3.50
2022-09-09T19:14:02.607Z,3.45
2022-09-09T19:16:30.778Z,2.75
2022-09-09T19:19:01.679Z,3.35
2022-09-09T19:21:30.265Z,3.00
2022-09-09T19:24:06.177Z,3.63
2022-09-09T19:26:37.151Z,3.35
2022-09-09T19:29:04.276Z,3.10
2022-09-09T19:31:31.428Z,3.13
2022-09-09T19:33:59.054Z,2.83
2022-09-09T19:36:31.568Z,3.10
2022-09-09T19:38:59.141Z,2.80
2022-09-09T19:41:27.456Z,2.60
2022-09-09T19:44:01.209Z,2.50
2022-09-09T19:46:32.247Z,2.60
2022-09-09T19:51:29.965Z,3.08
2022-09-09T19:53:58.341Z,2.72
2022-09-09T19:56:26.815Z,2.50
2022-09-09T19:58:54.700Z,2.78
2022-09-09T20:01:23.761Z,3.35
2022-09-09T20:03:52.300Z,2.55
2022-09-09T20:06:20.437Z,2.67
2022-09-09T20:08:48.563Z,2.50
2022-09-09T20:11:16.885Z,2.80
2022-09-09T20:13:44.538Z,3.00
2022-09-09T20:16:13.314Z,2.75
2022-09-09T20:18:42.301Z,3.05
2022-09-09T20:21:11.843Z,2.70
2022-09-09T20:23:39.263Z,2.88
2022-09-09T20:26:08.411Z,2.60
2022-09-09T20:28:36.475Z,3.10
2022-09-09T20:31:04.602Z,2.70
2022-09-09T20:33:32.405Z,2.70
2022-09-09T20:36:05.160Z,3.10
2022-09-09T20:38:36.038Z,3.03
2022-09-09T20:41:04.083Z,2.63
2022-09-09T20:43:31.223Z,3.15
2022-09-09T20:46:02.376Z,2.92
2022-09-09T20:50:56.557Z,2.60
2022-09-09T20:53:23.734Z,2.85
2022-09-09T20:55:50.891Z,3.00
2022-09-09T20:58:18.135Z,3.30
2022-09-09T21:00:45.390Z,3.00
2022-09-09T21:03:12.544Z,3.08
2022-09-09T21:05:39.645Z,3.03
2022-09-09T21:08:06.929Z,3.22
2022-09-09T21:10:34.084Z,3.15
2022-09-09T21:13:01.488Z,2.50
2022-09-09T21:15:28.777Z,2.80
2022-09-09T21:17:56.075Z,3.35
2022-09-09T21:20:23.224Z,3.10
2022-09-09T21:22:50.478Z,3.28
2022-09-09T21:25:17.596Z,3.40
2022-09-09T21:27:44.707Z,3.40
2022-09-09T21:30:12.269Z,2.90
2022-09-09T21:32:39.460Z,2.95
2022-09-09T21:35:07.096Z,3.40
2022-09-09T21:37:34.407Z,3.10
2022-09-09T21:40:01.959Z,3.20
2022-09-09T21:42:29.130Z,2.70
2022-09-09T21:44:56.333Z,3.13
2022-09-09T21:47:23.477Z,3.67
2022-09-09T21:49:51.044Z,2.80
2022-09-09T21:52:18.309Z,3.40
2022-09-09T21:54:45.413Z,3.42
2022-09-09T21:57:13.954Z,3.13
2022-09-09T21:59:42.182Z,3.00
2022-09-09T22:02:10.755Z,3.75
2022-09-09T22:04:38.108Z,3.17
2022-09-09T22:07:07.021Z,3.50
2022-09-09T22:09:34.788Z,2.85
2022-09-09T22:12:02.149Z,3.45
2022-09-09T22:14:29.430Z,3.55
2022-09-09T22:16:56.607Z,3.38
2022-09-09T22:19:23.878Z,3.25
2022-09-09T22:21:51.095Z,3.30
2022-09-09T22:24:18.211Z,3.15
2022-09-09T22:26:45.693Z,3.05
2022-09-09T22:29:13.018Z,3.22
2022-09-09T22:31:40.449Z,2.75
2022-09-09T22:34:07.862Z,3.10
2022-09-09T22:36:35.197Z,3.08
2022-09-09T22:39:02.380Z,2.92
2022-09-09T22:41:30.069Z,3.13
2022-09-09T22:43:59.124Z,3.60
2022-09-09T22:46:26.336Z,3.08
2022-09-09T22:48:53.500Z,3.58
2022-09-09T22:51:20.802Z,3.58
2022-09-09T22:53:47.929Z,3.83
2022-09-09T22:56:17.257Z,3.00
2022-09-09T22:58:44.926Z,3.33
2022-09-09T23:01:15.447Z,3.45
2022-09-09T23:03:46.269Z,3.45
2022-09-09T23:06:21.674Z,3.05
2022-09-09T23:08:56.207Z,3.80
2022-09-09T23:11:24.097Z,3.28
2022-09-09T23:13:52.615Z,2.97
2022-09-09T23:16:21.765Z,2.97
2022-09-09T23:18:50.384Z,2.92
2022-09-09T23:21:17.533Z,3.50
2022-09-09T23:23:45.580Z,2.97
2022-09-09T23:26:13.783Z,2.80
2022-09-09T23:28:42.433Z,2.72
2022-09-09T23:31:10.807Z,2.90
2022-09-09T23:33:38.193Z,2.75
2022-09-09T23:36:09.408Z,2.63
2022-09-09T23:41:06.449Z,3.30
2022-09-09T23:43:39.658Z,3.42
2022-09-09T23:46:08.763Z,3.10
2022-09-09T23:48:37.820Z,3.38
2022-09-09T23:51:09.742Z,3.10
2022-09-09T23:53:37.733Z,2.90
2022-09-09T23:56:05.251Z,3.17
2022-09-09T23:58:33.118Z,3.05
